sensor_id;sensor_type;location;lat;lon;timestamp;pressure;altitude;pressure_sealevel;temperature;humidity
49943;BME280;36011;53.362;58.948;2022-08-20T00:00:27;98182.81;;;11.56;48.76
49943;BME280;36011;53.362;58.948;2022-08-20T00:03:30;98186.41;;;11.55;48.69
49943;BME280;36011;53.362;58.948;2022-08-20T00:06:34;98190.09;;;11.51;52.51
49943;BME280;36011;53.362;58.948;2022-08-20T00:09:39;98188.38;;;11.50;53.08
49943;BME280;36011;53.362;58.948;2022-08-20T00:12:45;98183.25;;;11.47;49.58
49943;BME280;36011;53.362;58.948;2022-08-20T00:15:48;98175.50;;;11.44;50.73
49943;BME280;36011;53.362;58.948;2022-08-20T00:18:55;98185.25;;;11.42;49.71
49943;BME280;36011;53.362;58.948;2022-08-20T00:21:56;98182.63;;;11.42;49.83
49943;BME280;36011;53.362;58.948;2022-08-20T00:25:03;98183.56;;;11.41;49.81
49943;BME280;36011;53.362;58.948;2022-08-20T00:28:07;98187.94;;;11.40;52.67
49943;BME280;36011;53.362;58.948;2022-08-20T00:31:11;98184.31;;;11.43;50.77
49943;BME280;36011;53.362;58.948;2022-08-20T00:34:14;98192.06;;;11.46;50.98
49943;BME280;36011;53.362;58.948;2022-08-20T00:37:17;98186.81;;;11.46;51.94
49943;BME280;36011;53.362;58.948;2022-08-20T00:40:22;98184.97;;;11.48;49.93
49943;BME280;36011;53.362;58.948;2022-08-20T00:46:27;98172.56;;;11.50;49.74
49943;BME280;36011;53.362;58.948;2022-08-20T00:49:35;98176.00;;;11.52;50.37
49943;BME280;36011;53.362;58.948;2022-08-20T00:52:39;98177.53;;;11.56;49.47
49943;BME280;36011;53.362;58.948;2022-08-20T00:55:44;98173.69;;;11.63;49.09
49943;BME280;36011;53.362;58.948;2022-08-20T00:58:48;98168.97;;;11.70;50.80
49943;BME280;36011;53.362;58.948;2022-08-20T01:01:52;98174.78;;;11.77;49.24
49943;BME280;36011;53.362;58.948;2022-08-20T01:04:56;98182.41;;;11.83;49.90
49943;BME280;36011;53.362;58.948;2022-08-20T01:08:02;98181.50;;;11.84;49.50
49943;BME280;36011;53.362;58.948;2022-08-20T01:11:05;98177.28;;;11.80;52.18
49943;BME280;36011;53.362;58.948;2022-08-20T01:14:12;98175.50;;;11.80;52.38
49943;BME280;36011;53.362;58.948;2022-08-20T01:17:35;98186.50;;;11.90;53.03
49943;BME280;36011;53.362;58.948;2022-08-20T01:20:43;98186.03;;;11.99;54.14
49943;BME280;36011;53.362;58.948;2022-08-20T01:27:00;98190.25;;;12.21;51.78
49943;BME280;36011;53.362;58.948;2022-08-20T01:30:05;98179.53;;;12.24;51.76
49943;BME280;36011;53.362;58.948;2022-08-20T01:33:06;98191.63;;;12.28;52.33
49943;BME280;36011;53.362;58.948;2022-08-20T01:36:08;98177.03;;;12.38;53.16
49943;BME280;36011;53.362;58.948;2022-08-20T01:39:15;98173.91;;;12.47;51.10
49943;BME280;36011;53.362;58.948;2022-08-20T01:42:32;98179.66;;;12.55;49.68
49943;BME280;36011;53.362;58.948;2022-08-20T01:45:39;98180.59;;;12.54;50.38
49943;BME280;36011;53.362;58.948;2022-08-20T01:48:45;98175.84;;;12.61;49.83
49943;BME280;36011;53.362;58.948;2022-08-20T01:51:54;98175.63;;;12.66;49.58
49943;BME280;36011;53.362;58.948;2022-08-20T01:55:00;98175.44;;;12.69;50.66
49943;BME280;36011;53.362;58.948;2022-08-20T01:58:03;98175.13;;;12.75;49.00
49943;BME280;36011;53.362;58.948;2022-08-20T02:01:07;98180.06;;;12.81;51.73
49943;BME280;36011;53.362;58.948;2022-08-20T02:04:08;98171.66;;;12.90;50.64
49943;BME280;36011;53.362;58.948;2022-08-20T02:07:17;98178.22;;;12.99;50.51
49943;BME280;36011;53.362;58.948;2022-08-20T02:10:20;98178.78;;;13.06;50.47
49943;BME280;36011;53.362;58.948;2022-08-20T02:13:22;98181.84;;;13.14;48.69
49943;BME280;36011;53.362;58.948;2022-08-20T02:16:33;98174.38;;;13.22;50.09
49943;BME280;36011;53.362;58.948;2022-08-20T02:19:41;98187.16;;;13.30;49.07
49943;BME280;36011;53.362;58.948;2022-08-20T02:25:45;98182.81;;;13.44;49.56
49943;BME280;36011;53.362;58.948;2022-08-20T02:28:52;98179.50;;;13.57;50.04
49943;BME280;36011;53.362;58.948;2022-08-20T02:31:54;98187.69;;;13.68;48.34
49943;BME280;36011;53.362;58.948;2022-08-20T02:34:55;98188.88;;;13.78;48.19
49943;BME280;36011;53.362;58.948;2022-08-20T02:37:56;98190.84;;;13.90;50.04
49943;BME280;36011;53.362;58.948;2022-08-20T02:40:58;98201.47;;;14.05;49.67
49943;BME280;36011;53.362;58.948;2022-08-20T02:44:02;98192.63;;;14.20;49.73
49943;BME280;36011;53.362;58.948;2022-08-20T02:47:05;98196.16;;;14.35;48.82
49943;BME280;36011;53.362;58.948;2022-08-20T02:50:10;98187.50;;;14.47;48.11
49943;BME280;36011;53.362;58.948;2022-08-20T02:53:11;98191.25;;;14.59;47.98
49943;BME280;36011;53.362;58.948;2022-08-20T02:56:15;98190.69;;;14.68;48.31
49943;BME280;36011;53.362;58.948;2022-08-20T02:59:17;98189.09;;;14.80;47.77
49943;BME280;36011;53.362;58.948;2022-08-20T03:02:18;98189.19;;;14.93;48.43
49943;BME280;36011;53.362;58.948;2022-08-20T03:05:21;98185.88;;;15.03;47.10
49943;BME280;36011;53.362;58.948;2022-08-20T03:08:25;98190.63;;;15.13;47.06
49943;BME280;36011;53.362;58.948;2022-08-20T03:11:28;98187.09;;;15.26;46.45
49943;BME280;36011;53.362;58.948;2022-08-20T03:14:36;98186.31;;;15.39;46.36
49943;BME280;36011;53.362;58.948;2022-08-20T03:17:39;98182.16;;;15.49;45.87
49943;BME280;36011;53.362;58.948;2022-08-20T03:20:43;98185.41;;;15.67;46.22
49943;BME280;36011;53.362;58.948;2022-08-20T03:23:44;98177.63;;;15.78;46.20
49943;BME280;36011;53.362;58.948;2022-08-20T03:26:45;98175.13;;;15.89;45.95
49943;BME280;36011;53.362;58.948;2022-08-20T03:29:47;98175.19;;;16.02;45.94
49943;BME280;36011;53.362;58.948;2022-08-20T03:32:52;98177.31;;;16.10;45.64
49943;BME280;36011;53.362;58.948;2022-08-20T03:35:54;98177.25;;;16.24;45.52
49943;BME280;36011;53.362;58.948;2022-08-20T03:38:57;98178.03;;;16.39;45.48
49943;BME280;36011;53.362;58.948;2022-08-20T03:41:58;98180.19;;;16.59;45.23
49943;BME280;36011;53.362;58.948;2022-08-20T03:45:02;98181.13;;;16.71;44.80
49943;BME280;36011;53.362;58.948;2022-08-20T03:48:06;98183.09;;;16.82;44.54
49943;BME280;36011;53.362;58.948;2022-08-20T03:51:08;98185.94;;;16.92;44.60
49943;BME280;36011;53.362;58.948;2022-08-20T03:54:09;98191.78;;;17.10;44.11
49943;BME280;36011;53.362;58.948;2022-08-20T03:57:14;98184.75;;;17.21;44.11
49943;BME280;36011;53.362;58.948;2022-08-20T04:00:20;98187.59;;;17.31;43.98
49943;BME280;36011;53.362;58.948;2022-08-20T04:03:25;98185.03;;;17.42;43.65
49943;BME280;36011;53.362;58.948;2022-08-20T04:06:31;98179.22;;;17.61;43.42
49943;BME280;36011;53.362;58.948;2022-08-20T04:09:35;98184.94;;;17.81;43.45
49943;BME280;36011;53.362;58.948;2022-08-20T04:12:40;98185.63;;;17.95;43.00
49943;BME280;36011;53.362;58.948;2022-08-20T04:15:44;98193.22;;;18.13;42.91
49943;BME280;36011;53.362;58.948;2022-08-20T04:18:45;98189.50;;;18.27;42.85
49943;BME280;36011;53.362;58.948;2022-08-20T04:21:50;98183.25;;;18.39;42.76
49943;BME280;36011;53.362;58.948;2022-08-20T04:24:51;98176.13;;;18.51;42.56
49943;BME280;36011;53.362;58.948;2022-08-20T04:27:52;98193.00;;;18.62;42.39
49943;BME280;36011;53.362;58.948;2022-08-20T04:30:57;98180.06;;;18.69;42.51
49943;BME280;36011;53.362;58.948;2022-08-20T04:34:01;98185.22;;;18.83;42.12
49943;BME280;36011;53.362;58.948;2022-08-20T04:37:05;98181.81;;;19.04;42.13
49943;BME280;36011;53.362;58.948;2022-08-20T04:40:10;98183.06;;;19.11;41.72
49943;BME280;36011;53.362;58.948;2022-08-20T04:43:34;98174.81;;;19.25;41.76
49943;BME280;36011;53.362;58.948;2022-08-20T04:46:36;98181.31;;;19.44;41.74
49943;BME280;36011;53.362;58.948;2022-08-20T04:49:38;98166.50;;;19.62;41.28
49943;BME280;36011;53.362;58.948;2022-08-20T04:52:43;98164.09;;;19.70;41.09
49943;BME280;36011;53.362;58.948;2022-08-20T04:55:47;98160.34;;;19.73;41.12
49943;BME280;36011;53.362;58.948;2022-08-20T04:58:51;98173.25;;;19.89;41.24
49943;BME280;36011;53.362;58.948;2022-08-20T05:01:55;98173.44;;;20.82;39.87
49943;BME280;36011;53.362;58.948;2022-08-20T05:04:59;98170.69;;;24.83;34.57
49943;BME280;36011;53.362;58.948;2022-08-20T05:08:00;98175.13;;;29.41;28.72
49943;BME280;36011;53.362;58.948;2022-08-20T05:11:03;98183.22;;;33.45;24.57
49943;BME280;36011;53.362;58.948;2022-08-20T05:14:05;98191.22;;;36.78;21.41
49943;BME280;36011;53.362;58.948;2022-08-20T05:17:08;98197.34;;;39.22;18.93
49943;BME280;36011;53.362;58.948;2022-08-20T05:20:15;98190.47;;;41.11;17.32
49943;BME280;36011;53.362;58.948;2022-08-20T05:23:17;98197.00;;;43.09;16.48
49943;BME280;36011;53.362;58.948;2022-08-20T05:26:24;98184.19;;;44.74;14.61
49943;BME280;36011;53.362;58.948;2022-08-20T05:29:26;98190.06;;;46.03;14.09
49943;BME280;36011;53.362;58.948;2022-08-20T05:32:28;98183.84;;;47.19;12.29
49943;BME280;36011;53.362;58.948;2022-08-20T05:35:33;98186.44;;;48.12;12.68
49943;BME280;36011;53.362;58.948;2022-08-20T05:38:39;98189.03;;;48.95;11.89
49943;BME280;36011;53.362;58.948;2022-08-20T05:41:43;98178.53;;;50.21;11.39
49943;BME280;36011;53.362;58.948;2022-08-20T05:44:46;98188.28;;;50.41;9.46
49943;BME280;36011;53.362;58.948;2022-08-20T05:47:47;98180.69;;;50.32;9.92
49943;BME280;36011;53.362;58.948;2022-08-20T05:50:53;98183.69;;;50.80;9.57
49943;BME280;36011;53.362;58.948;2022-08-20T05:53:56;98181.69;;;50.71;8.65
49943;BME280;36011;53.362;58.948;2022-08-20T05:56:58;98171.84;;;50.65;9.01
49943;BME280;36011;53.362;58.948;2022-08-20T06:00:05;98175.41;;;50.92;8.32
49943;BME280;36011;53.362;58.948;2022-08-20T06:03:07;98176.66;;;51.20;8.32
49943;BME280;36011;53.362;58.948;2022-08-20T06:06:28;98167.00;;;50.83;8.44
49943;BME280;36011;53.362;58.948;2022-08-20T06:09:31;98165.53;;;50.86;8.31
49943;BME280;36011;53.362;58.948;2022-08-20T06:12:34;98158.34;;;51.23;8.44
49943;BME280;36011;53.362;58.948;2022-08-20T06:15:37;98156.03;;;51.63;7.88
49943;BME280;36011;53.362;58.948;2022-08-20T06:18:42;98162.16;;;51.95;7.73
49943;BME280;36011;53.362;58.948;2022-08-20T06:21:45;98148.75;;;51.24;7.31
49943;BME280;36011;53.362;58.948;2022-08-20T06:24:47;98146.13;;;50.28;7.75
49943;BME280;36011;53.362;58.948;2022-08-20T06:27:48;98133.09;;;49.18;8.44
49943;BME280;36011;53.362;58.948;2022-08-20T06:30:50;98135.25;;;49.21;8.32
49943;BME280;36011;53.362;58.948;2022-08-20T06:33:55;98138.72;;;48.95;8.06
49943;BME280;36011;53.362;58.948;2022-08-20T06:36:57;98124.13;;;48.53;8.46
49943;BME280;36011;53.362;58.948;2022-08-20T06:39:59;98127.66;;;48.23;8.77
49943;BME280;36011;53.362;58.948;2022-08-20T06:43:06;98124.97;;;48.18;8.76
49943;BME280;36011;53.362;58.948;2022-08-20T06:46:08;98114.53;;;47.45;9.08
49943;BME280;36011;53.362;58.948;2022-08-20T06:49:10;98120.50;;;47.53;9.09
49943;BME280;36011;53.362;58.948;2022-08-20T06:52:15;98110.59;;;48.24;8.87
49943;BME280;36011;53.362;58.948;2022-08-20T06:55:21;98102.72;;;49.25;8.47
49943;BME280;36011;53.362;58.948;2022-08-20T06:58:27;98106.50;;;49.69;8.25
49943;BME280;36011;53.362;58.948;2022-08-20T07:01:29;98112.66;;;49.49;8.36
49943;BME280;36011;53.362;58.948;2022-08-20T07:04:32;98107.03;;;48.77;8.59
49943;BME280;36011;53.362;58.948;2022-08-20T07:07:37;98101.88;;;47.76;8.86
49943;BME280;36011;53.362;58.948;2022-08-20T07:10:43;98099.78;;;47.95;8.88
49943;BME280;36011;53.362;58.948;2022-08-20T07:13:47;98092.00;;;48.87;8.45
49943;BME280;36011;53.362;58.948;2022-08-20T07:16:48;98103.59;;;50.09;8.13
49943;BME280;36011;53.362;58.948;2022-08-20T07:19:50;98110.97;;;50.83;7.77
49943;BME280;36011;53.362;58.948;2022-08-20T07:22:55;98110.44;;;51.46;7.53
49943;BME280;36011;53.362;58.948;2022-08-20T07:25:59;98110.31;;;52.56;7.08
49943;BME280;36011;53.362;58.948;2022-08-20T07:29:03;98104.41;;;52.36;7.06
49943;BME280;36011;53.362;58.948;2022-08-20T07:32:04;98100.72;;;51.64;7.31
49943;BME280;36011;53.362;58.948;2022-08-20T07:35:24;98098.00;;;52.81;6.65
49943;BME280;36011;53.362;58.948;2022-08-20T07:38:25;98092.75;;;54.71;6.31
49943;BME280;36011;53.362;58.948;2022-08-20T07:41:27;98092.91;;;56.28;5.51
49943;BME280;36011;53.362;58.948;2022-08-20T07:44:29;98094.56;;;56.48;5.68
49943;BME280;36011;53.362;58.948;2022-08-20T07:47:33;98086.59;;;55.80;5.97
49943;BME280;36011;53.362;58.948;2022-08-20T07:50:35;98086.06;;;55.39;5.56
49943;BME280;36011;53.362;58.948;2022-08-20T07:53:37;98090.91;;;55.07;6.13
49943;BME280;36011;53.362;58.948;2022-08-20T07:56:42;98081.13;;;55.87;5.94
49943;BME280;36011;53.362;58.948;2022-08-20T07:59:46;98093.13;;;56.00;5.56
49943;BME280;36011;53.362;58.948;2022-08-20T08:02:48;98084.41;;;55.89;5.67
49943;BME280;36011;53.362;58.948;2022-08-20T08:05:51;98082.00;;;56.27;5.36
49943;BME280;36011;53.362;58.948;2022-08-20T08:09:10;98079.03;;;56.81;5.56
49943;BME280;36011;53.362;58.948;2022-08-20T08:12:12;98087.34;;;57.66;4.87
49943;BME280;36011;53.362;58.948;2022-08-20T08:15:16;98098.34;;;58.32;5.01
49943;BME280;36011;53.362;58.948;2022-08-20T08:18:23;98093.09;;;57.47;4.76
49943;BME280;36011;53.362;58.948;2022-08-20T08:21:29;98086.81;;;55.71;5.56
49943;BME280;36011;53.362;58.948;2022-08-20T08:24:32;98079.13;;;55.21;5.22
49943;BME280;36011;53.362;58.948;2022-08-20T08:27:35;98068.91;;;53.72;6.14
49943;BME280;36011;53.362;58.948;2022-08-20T08:30:39;98066.31;;;53.30;6.42
49943;BME280;36011;53.362;58.948;2022-08-20T08:33:46;98072.56;;;54.41;5.69
49943;BME280;36011;53.362;58.948;2022-08-20T08:36:50;98066.38;;;55.43;5.35
49943;BME280;36011;53.362;58.948;2022-08-20T08:39:56;98059.69;;;55.15;5.51
49943;BME280;36011;53.362;58.948;2022-08-20T08:42:58;98064.56;;;53.50;6.43
49943;BME280;36011;53.362;58.948;2022-08-20T08:46:02;98043.91;;;48.23;8.87
49943;BME280;36011;53.362;58.948;2022-08-20T08:49:09;98031.28;;;45.61;10.07
49943;BME280;36011;53.362;58.948;2022-08-20T08:55:23;98035.84;;;50.59;7.44
49943;BME280;36011;53.362;58.948;2022-08-20T08:58:26;98036.56;;;52.46;6.81
49943;BME280;36011;53.362;58.948;2022-08-20T09:01:27;98032.50;;;53.91;6.16
49943;BME280;36011;53.362;58.948;2022-08-20T09:04:35;98037.94;;;54.12;5.81
49943;BME280;36011;53.362;58.948;2022-08-20T09:07:39;98033.94;;;54.13;6.16
49943;BME280;36011;53.362;58.948;2022-08-20T09:10:44;98035.59;;;51.58;6.92
49943;BME280;36011;53.362;58.948;2022-08-20T09:13:48;98007.94;;;47.62;8.68
49943;BME280;36011;53.362;58.948;2022-08-20T09:16:51;98011.38;;;48.04;8.89
49943;BME280;36011;53.362;58.948;2022-08-20T09:19:52;98011.94;;;48.29;8.71
49943;BME280;36011;53.362;58.948;2022-08-20T09:22:55;98015.31;;;49.68;7.65
49943;BME280;36011;53.362;58.948;2022-08-20T09:25:56;98007.88;;;51.36;7.03
49943;BME280;36011;53.362;58.948;2022-08-20T09:28:58;98006.00;;;51.91;6.54
49943;BME280;36011;53.362;58.948;2022-08-20T09:32:15;98004.00;;;51.19;7.12
49943;BME280;36011;53.362;58.948;2022-08-20T09:35:19;98006.69;;;49.30;7.93
49943;BME280;36011;53.362;58.948;2022-08-20T09:38:22;98003.22;;;46.80;9.20
49943;BME280;36011;53.362;58.948;2022-08-20T09:41:23;97993.03;;;47.67;8.48
49943;BME280;36011;53.362;58.948;2022-08-20T09:44:29;97989.94;;;49.38;7.83
49943;BME280;36011;53.362;58.948;2022-08-20T09:47:30;97998.53;;;48.40;8.47
49943;BME280;36011;53.362;58.948;2022-08-20T09:50:32;97986.66;;;47.53;8.58
49943;BME280;36011;53.362;58.948;2022-08-20T09:53:37;97991.81;;;47.59;8.50
49943;BME280;36011;53.362;58.948;2022-08-20T09:56:41;97981.72;;;48.08;8.42
49943;BME280;36011;53.362;58.948;2022-08-20T09:59:47;97979.28;;;48.61;8.13
49943;BME280;36011;53.362;58.948;2022-08-20T10:02:53;97984.41;;;49.07;8.05
49943;BME280;36011;53.362;58.948;2022-08-20T10:05:54;97975.50;;;49.71;7.72
49943;BME280;36011;53.362;58.948;2022-08-20T10:08:55;97980.72;;;49.47;7.80
49943;BME280;36011;53.362;58.948;2022-08-20T10:11:59;97970.28;;;48.41;8.39
49943;BME280;36011;53.362;58.948;2022-08-20T10:15:00;97960.59;;;47.71;8.61
49943;BME280;36011;53.362;58.948;2022-08-20T10:18:04;97951.53;;;47.65;8.48
49943;BME280;36011;53.362;58.948;2022-08-20T10:21:10;97954.00;;;48.12;8.68
49943;BME280;36011;53.362;58.948;2022-08-20T10:24:11;97950.22;;;47.85;8.66
49943;BME280;36011;53.362;58.948;2022-08-20T10:27:15;97940.09;;;46.75;9.15
49943;BME280;36011;53.362;58.948;2022-08-20T10:30:19;97944.03;;;47.38;8.75
49943;BME280;36011;53.362;58.948;2022-08-20T10:33:25;97942.94;;;47.26;9.04
49943;BME280;36011;53.362;58.948;2022-08-20T10:36:26;97940.66;;;45.60;10.11
49943;BME280;36011;53.362;58.948;2022-08-20T10:39:30;97922.16;;;44.89;10.28
49943;BME280;36011;53.362;58.948;2022-08-20T10:42:31;97921.50;;;45.59;10.08
49943;BME280;36011;53.362;58.948;2022-08-20T10:45:34;97922.38;;;45.35;10.18
49943;BME280;36011;53.362;58.948;2022-08-20T10:48:38;97926.41;;;46.00;9.85
49943;BME280;36011;53.362;58.948;2022-08-20T10:51:40;97916.97;;;46.89;9.34
49943;BME280;36011;53.362;58.948;2022-08-20T10:54:44;97918.28;;;45.52;10.31
49943;BME280;36011;53.362;58.948;2022-08-20T10:57:47;97910.75;;;43.79;11.36
49943;BME280;36011;53.362;58.948;2022-08-20T11:00:48;97904.91;;;42.91;12.15
49943;BME280;36011;53.362;58.948;2022-08-20T11:03:52;97898.88;;;42.69;12.04
49943;BME280;36011;53.362;58.948;2022-08-20T11:06:55;97903.69;;;42.37;12.38
49943;BME280;36011;53.362;58.948;2022-08-20T11:09:59;97896.03;;;40.84;13.25
49943;BME280;36011;53.362;58.948;2022-08-20T11:13:00;97895.78;;;40.96;13.20
49943;BME280;36011;53.362;58.948;2022-08-20T11:16:04;97893.72;;;41.39;12.68
49943;BME280;36011;53.362;58.948;2022-08-20T11:19:12;97887.66;;;41.42;12.96
49943;BME280;36011;53.362;58.948;2022-08-20T11:22:13;97882.75;;;41.90;12.44
49943;BME280;36011;53.362;58.948;2022-08-20T11:25:18;97879.06;;;40.55;13.59
49943;BME280;36011;53.362;58.948;2022-08-20T11:28:19;97875.47;;;38.50;15.20
49943;BME280;36011;53.362;58.948;2022-08-20T11:31:22;97868.91;;;37.78;15.83
49943;BME280;36011;53.362;58.948;2022-08-20T11:34:25;97872.94;;;38.65;15.46
49943;BME280;36011;53.362;58.948;2022-08-20T11:37:29;97875.31;;;39.27;14.53
49943;BME280;36011;53.362;58.948;2022-08-20T11:40:32;97873.38;;;39.28;14.82
49943;BME280;36011;53.362;58.948;2022-08-20T11:43:36;97868.59;;;38.30;15.35
49943;BME280;36011;53.362;58.948;2022-08-20T11:46:37;97864.38;;;36.81;16.28
49943;BME280;36011;53.362;58.948;2022-08-20T11:49:38;97862.97;;;35.49;17.82
49943;BME280;36011;53.362;58.948;2022-08-20T11:52:41;97857.03;;;34.61;18.45
49943;BME280;36011;53.362;58.948;2022-08-20T11:55:43;97848.00;;;34.06;18.97
49943;BME280;36011;53.362;58.948;2022-08-20T11:58:47;97841.34;;;33.45;19.27
49943;BME280;36011;53.362;58.948;2022-08-20T12:01:50;97852.94;;;33.08;20.03
49943;BME280;36011;53.362;58.948;2022-08-20T12:04:56;97843.34;;;32.99;19.84
49943;BME280;36011;53.362;58.948;2022-08-20T12:07:59;97832.81;;;33.85;19.51
49943;BME280;36011;53.362;58.948;2022-08-20T12:11:03;97838.41;;;34.70;18.45
49943;BME280;36011;53.362;58.948;2022-08-20T12:14:07;97838.16;;;35.74;17.56
49943;BME280;36011;53.362;58.948;2022-08-20T12:17:15;97842.22;;;36.71;16.67
49943;BME280;36011;53.362;58.948;2022-08-20T12:20:26;97842.22;;;37.28;16.85
49943;BME280;36011;53.362;58.948;2022-08-20T12:23:27;97839.75;;;37.43;16.86
49943;BME280;36011;53.362;58.948;2022-08-20T12:26:28;97834.16;;;37.38;16.51
49943;BME280;36011;53.362;58.948;2022-08-20T12:29:32;97834.97;;;36.93;17.18
49943;BME280;36011;53.362;58.948;2022-08-20T12:32:35;97830.66;;;35.93;17.91
49943;BME280;36011;53.362;58.948;2022-08-20T12:35:36;97827.81;;;35.11;18.58
49943;BME280;36011;53.362;58.948;2022-08-20T12:38:40;97825.69;;;34.46;19.09
49943;BME280;36011;53.362;58.948;2022-08-20T12:41:44;97818.97;;;33.86;19.78
49943;BME280;36011;53.362;58.948;2022-08-20T12:44:47;97823.13;;;33.14;20.31
49943;BME280;36011;53.362;58.948;2022-08-20T12:47:51;97825.88;;;32.69;21.32
49943;BME280;36011;53.362;58.948;2022-08-20T12:50:54;97818.53;;;32.11;22.09
49943;BME280;36011;53.362;58.948;2022-08-20T12:53:58;97812.75;;;31.54;22.36
49943;BME280;36011;53.362;58.948;2022-08-20T12:56:59;97814.78;;;31.12;22.83
49943;BME280;36011;53.362;58.948;2022-08-20T13:00:04;97821.75;;;30.60;24.03
49943;BME280;36011;53.362;58.948;2022-08-20T13:03:10;97828.59;;;30.08;25.76
49943;BME280;36011;53.362;58.948;2022-08-20T13:06:13;97823.69;;;29.62;27.14
49943;BME280;36011;53.362;58.948;2022-08-20T13:09:15;97834.94;;;29.16;27.93
49943;BME280;36011;53.362;58.948;2022-08-20T13:12:17;97843.66;;;28.24;30.08
49943;BME280;36011;53.362;58.948;2022-08-20T13:15:18;97835.38;;;27.58;32.00
49943;BME280;36011;53.362;58.948;2022-08-20T13:18:24;97849.38;;;27.23;32.76
49943;BME280;36011;53.362;58.948;2022-08-20T13:21:27;97865.09;;;26.88;34.37
49943;BME280;36011;53.362;58.948;2022-08-20T13:24:29;97850.25;;;26.61;35.80
49943;BME280;36011;53.362;58.948;2022-08-20T13:27:32;97834.91;;;26.23;36.76
49943;BME280;36011;53.362;58.948;2022-08-20T13:30:40;97839.19;;;26.01;37.89
49943;BME280;36011;53.362;58.948;2022-08-20T13:33:43;97834.13;;;26.06;38.63
49943;BME280;36011;53.362;58.948;2022-08-20T13:36:44;97839.22;;;25.92;38.03
49943;BME280;36011;53.362;58.948;2022-08-20T13:39:48;97836.00;;;25.81;38.26
49943;BME280;36011;53.362;58.948;2022-08-20T13:42:51;97841.28;;;25.66;38.68
49943;BME280;36011;53.362;58.948;2022-08-20T13:45:54;97850.41;;;25.40;38.63
49943;BME280;36011;53.362;58.948;2022-08-20T13:48:58;97844.66;;;25.27;39.57
49943;BME280;36011;53.362;58.948;2022-08-20T13:52:01;97845.28;;;25.04;39.98
49943;BME280;36011;53.362;58.948;2022-08-20T13:55:03;97828.28;;;24.79;40.86
49943;BME280;36011;53.362;58.948;2022-08-20T13:58:06;97829.06;;;24.55;41.49
49943;BME280;36011;53.362;58.948;2022-08-20T14:01:08;97829.69;;;24.41;41.78
49943;BME280;36011;53.362;58.948;2022-08-20T14:04:12;97829.91;;;24.13;41.85
49943;BME280;36011;53.362;58.948;2022-08-20T14:07:16;97826.19;;;24.06;42.37
49943;BME280;36011;53.362;58.948;2022-08-20T14:10:21;97821.09;;;23.95;42.06
49943;BME280;36011;53.362;58.948;2022-08-20T14:13:25;97824.06;;;23.84;41.88
49943;BME280;36011;53.362;58.948;2022-08-20T14:16:26;97827.22;;;23.79;41.79
49943;BME280;36011;53.362;58.948;2022-08-20T14:19:27;97828.56;;;23.75;41.62
49943;BME280;36011;53.362;58.948;2022-08-20T14:22:31;97823.66;;;23.70;41.96
49943;BME280;36011;53.362;58.948;2022-08-20T14:25:35;97820.16;;;23.78;41.86
49943;BME280;36011;53.362;58.948;2022-08-20T14:28:38;97813.84;;;23.87;41.74
49943;BME280;36011;53.362;58.948;2022-08-20T14:31:39;97815.53;;;23.96;41.52
49943;BME280;36011;53.362;58.948;2022-08-20T14:34:41;97812.22;;;24.03;41.42
49943;BME280;36011;53.362;58.948;2022-08-20T14:37:45;97809.38;;;24.04;41.27
49943;BME280;36011;53.362;58.948;2022-08-20T14:40:47;97811.41;;;24.10;41.18
49943;BME280;36011;53.362;58.948;2022-08-20T14:43:52;97819.81;;;24.07;41.15
49943;BME280;36011;53.362;58.948;2022-08-20T14:46:53;97820.81;;;24.06;41.07
49943;BME280;36011;53.362;58.948;2022-08-20T14:49:57;97821.31;;;24.10;40.91
49943;BME280;36011;53.362;58.948;2022-08-20T14:53:04;97817.06;;;23.99;40.88
49943;BME280;36011;53.362;58.948;2022-08-20T14:56:05;97825.09;;;23.91;40.41
49943;BME280;36011;53.362;58.948;2022-08-20T14:59:06;97825.75;;;23.85;40.36
49943;BME280;36011;53.362;58.948;2022-08-20T15:02:08;97827.03;;;23.81;40.70
49943;BME280;36011;53.362;58.948;2022-08-20T15:05:14;97829.22;;;23.77;40.73
49943;BME280;36011;53.362;58.948;2022-08-20T15:08:20;97830.59;;;23.81;40.74
49943;BME280;36011;53.362;58.948;2022-08-20T15:11:21;97832.66;;;23.87;40.68
49943;BME280;36011;53.362;58.948;2022-08-20T15:14:22;97830.91;;;23.78;40.65
49943;BME280;36011;53.362;58.948;2022-08-20T15:17:27;97846.50;;;23.74;40.90
49943;BME280;36011;53.362;58.948;2022-08-20T15:20:31;97842.84;;;23.75;40.80
49943;BME280;36011;53.362;58.948;2022-08-20T15:23:33;97845.66;;;23.74;40.90
49943;BME280;36011;53.362;58.948;2022-08-20T15:26:34;97849.25;;;23.83;40.89
49943;BME280;36011;53.362;58.948;2022-08-20T15:29:37;97861.31;;;23.79;40.83
49943;BME280;36011;53.362;58.948;2022-08-20T15:32:38;97857.56;;;23.71;41.16
49943;BME280;36011;53.362;58.948;2022-08-20T15:35:40;97863.34;;;23.59;41.85
49943;BME280;36011;53.362;58.948;2022-08-20T15:38:42;97867.75;;;23.42;42.32
49943;BME280;36011;53.362;58.948;2022-08-20T15:41:45;97869.59;;;23.23;43.24
49943;BME280;36011;53.362;58.948;2022-08-20T15:44:51;97862.09;;;23.09;43.91
49943;BME280;36011;53.362;58.948;2022-08-20T15:47:53;97873.91;;;22.98;44.54
49943;BME280;36011;53.362;58.948;2022-08-20T15:54:24;97887.19;;;22.72;45.87
49943;BME280;36011;53.362;58.948;2022-08-20T15:57:36;97877.72;;;22.50;46.26
49943;BME280;36011;53.362;58.948;2022-08-20T16:00:47;97879.00;;;22.28;46.31
49943;BME280;36011;53.362;58.948;2022-08-20T16:04:17;97880.88;;;22.08;46.81
49943;BME280;36011;53.362;58.948;2022-08-20T16:07:42;97883.28;;;22.02;46.58
49943;BME280;36011;53.362;58.948;2022-08-20T16:13:45;97892.31;;;22.01;47.69
49943;BME280;36011;53.362;58.948;2022-08-20T16:16:55;97895.59;;;21.94;47.96
49943;BME280;36011;53.362;58.948;2022-08-20T16:20:02;97891.78;;;21.87;48.03
49943;BME280;36011;53.362;58.948;2022-08-20T16:23:13;97898.28;;;21.85;48.22